createdAt,value
2022-11-25T00:00:53.861Z,100.00
2022-11-25T00:03:20.567Z,100.00
2022-11-25T00:05:47.134Z,100.00
2022-11-25T00:08:13.742Z,100.00
2022-11-25T00:10:40.238Z,100.00
2022-11-25T00:13:06.920Z,100.00
2022-11-25T00:15:34.167Z,100.00
2022-11-25T00:18:00.648Z,100.00
2022-11-25T00:20:27.230Z,100.00
2022-11-25T00:22:53.778Z,100.00
2022-11-25T00:25:20.375Z,100.00
2022-11-25T00:27:46.953Z,100.00
2022-11-25T00:30:13.950Z,100.00
2022-11-25T00:32:40.455Z,100.00
2022-11-25T00:35:07.415Z,100.00
2022-11-25T00:37:33.981Z,100.00
2022-11-25T00:40:00.538Z,100.00
2022-11-25T00:42:45.660Z,100.00
2022-11-25T00:45:12.490Z,100.00
2022-11-25T00:47:38.980Z,100.00
2022-11-25T00:50:06.049Z,100.00
2022-11-25T00:52:37.127Z,100.00
2022-11-25T00:55:04.657Z,100.00
2022-11-25T00:57:31.456Z,100.00
2022-11-25T00:59:58.043Z,100.00
2022-11-25T01:02:24.630Z,100.00
2022-11-25T01:04:51.329Z,100.00
2022-11-25T01:07:18.507Z,100.00
2022-11-25T01:09:45.280Z,100.00
2022-11-25T01:12:11.952Z,100.00
2022-11-25T01:14:39.227Z,100.00
2022-11-25T01:17:06.061Z,100.00
2022-11-25T01:19:33.339Z,100.00
2022-11-25T01:22:00.254Z,100.00
2022-11-25T01:24:26.820Z,100.00
2022-11-25T01:26:55.252Z,100.00
2022-11-25T01:29:21.893Z,100.00
2022-11-25T01:31:48.791Z,100.00
2022-11-25T01:34:18.586Z,100.00
2022-11-25T01:36:45.356Z,100.00
2022-11-25T01:39:20.563Z,100.00
2022-11-25T01:41:48.455Z,100.00
2022-11-25T01:44:16.882Z,100.00
2022-11-25T01:46:52.560Z,100.00
2022-11-25T01:50:00.823Z,100.00
2022-11-25T01:52:34.412Z,100.00
2022-11-25T01:55:11.064Z,100.00
2022-11-25T01:58:02.570Z,100.00
2022-11-25T02:00:29.246Z,100.00
2022-11-25T02:02:58.031Z,100.00
2022-11-25T02:05:50.804Z,100.00
2022-11-25T02:08:19.465Z,100.00
2022-11-25T02:10:46.642Z,100.00
2022-11-25T02:13:13.401Z,100.00
2022-11-25T02:15:40.147Z,100.00
2022-11-25T02:18:07.014Z,100.00
2022-11-25T02:20:33.777Z,100.00
2022-11-25T02:23:08.447Z,100.00
2022-11-25T02:25:37.680Z,100.00
2022-11-25T02:28:10.748Z,100.00
2022-11-25T02:30:38.331Z,100.00
2022-11-25T02:33:05.958Z,100.00
2022-11-25T02:35:35.846Z,100.00
2022-11-25T02:38:16.189Z,100.00
2022-11-25T02:40:51.761Z,100.00
2022-11-25T02:43:18.928Z,100.00
2022-11-25T02:45:52.532Z,100.00
2022-11-25T02:48:19.253Z,100.00
2022-11-25T02:50:45.847Z,100.00
2022-11-25T02:53:12.636Z,100.00
2022-11-25T02:55:39.241Z,100.00
2022-11-25T02:58:05.876Z,100.00
2022-11-25T03:00:32.459Z,100.00
2022-11-25T03:02:59.250Z,100.00
2022-11-25T03:05:26.204Z,100.00
2022-11-25T03:07:53.112Z,100.00
2022-11-25T03:10:19.765Z,100.00
2022-11-25T03:12:46.345Z,100.00
2022-11-25T03:15:13.032Z,100.00
2022-11-25T03:17:39.660Z,100.00
2022-11-25T03:20:08.226Z,100.00
2022-11-25T03:22:35.902Z,100.00
2022-11-25T03:25:02.562Z,100.00
2022-11-25T03:27:30.409Z,100.00
2022-11-25T03:29:57.157Z,100.00
2022-11-25T03:32:23.747Z,100.00
2022-11-25T03:34:50.369Z,100.00
2022-11-25T03:37:17.081Z,100.00
2022-11-25T03:39:43.716Z,100.00
2022-11-25T03:42:10.244Z,100.00
2022-11-25T03:44:37.236Z,100.00
2022-11-25T03:47:04.534Z,100.00
2022-11-25T03:49:31.137Z,100.00
2022-11-25T03:51:58.113Z,100.00
2022-11-25T03:54:24.850Z,100.00
2022-11-25T03:56:51.460Z,100.00
2022-11-25T03:59:17.986Z,100.00
2022-11-25T04:01:44.774Z,100.00
2022-11-25T04:04:11.947Z,100.00
2022-11-25T04:06:39.595Z,100.00
2022-11-25T04:09:07.500Z,100.00
2022-11-25T04:11:53.120Z,100.00
2022-11-25T04:14:19.855Z,100.00
2022-11-25T04:16:46.503Z,100.00
2022-11-25T04:19:13.132Z,100.00
2022-11-25T04:21:39.799Z,100.00
2022-11-25T04:24:06.962Z,100.00
2022-11-25T04:26:33.655Z,100.00
2022-11-25T04:29:00.558Z,100.00
2022-11-25T04:31:27.137Z,100.00
2022-11-25T04:33:53.647Z,100.00
2022-11-25T04:36:20.444Z,100.00
2022-11-25T04:38:47.018Z,100.00
2022-11-25T04:41:13.669Z,100.00
2022-11-25T04:43:40.495Z,100.00
2022-11-25T04:46:14.008Z,100.00
2022-11-25T04:48:41.090Z,100.00
2022-11-25T04:51:07.808Z,100.00
2022-11-25T04:53:34.328Z,100.00
2022-11-25T04:56:00.822Z,100.00
2022-11-25T04:58:45.605Z,100.00
2022-11-25T05:01:12.264Z,100.00
2022-11-25T05:03:43.582Z,100.00
2022-11-25T05:06:13.138Z,100.00
2022-11-25T05:08:39.579Z,100.00
2022-11-25T05:11:06.064Z,100.00
2022-11-25T05:13:32.532Z,100.00
2022-11-25T05:16:00.273Z,100.00
2022-11-25T05:18:26.776Z,100.00
2022-11-25T05:20:53.237Z,100.00
2022-11-25T05:23:19.790Z,100.00
2022-11-25T05:25:46.477Z,100.00
2022-11-25T05:28:13.000Z,100.00
2022-11-25T05:30:39.552Z,100.00
2022-11-25T05:33:06.048Z,100.00
2022-11-25T05:35:32.548Z,100.00
2022-11-25T05:38:01.073Z,100.00
2022-11-25T05:40:27.569Z,100.00
2022-11-25T05:42:54.083Z,100.00
2022-11-25T05:45:20.592Z,100.00
2022-11-25T05:47:47.061Z,100.00
2022-11-25T05:50:13.572Z,100.00
2022-11-25T05:52:40.059Z,100.00
2022-11-25T05:55:07.192Z,100.00
2022-11-25T05:57:33.675Z,100.00
2022-11-25T06:00:00.197Z,100.00
2022-11-25T06:02:26.808Z,100.00
2022-11-25T06:04:53.343Z,100.00
2022-11-25T06:07:19.862Z,100.00
2022-11-25T06:09:46.337Z,100.00
2022-11-25T06:12:12.805Z,100.00
2022-11-25T06:14:39.353Z,100.00
2022-11-25T06:17:05.826Z,100.00
2022-11-25T06:19:32.435Z,100.00
2022-11-25T06:21:59.111Z,100.00
2022-11-25T06:24:25.836Z,100.00
2022-11-25T06:26:52.631Z,100.00
2022-11-25T06:29:19.265Z,100.00
2022-11-25T06:31:45.866Z,100.00
2022-11-25T06:34:12.575Z,100.00
2022-11-25T06:36:39.182Z,100.00
2022-11-25T06:39:05.847Z,100.00
2022-11-25T06:41:32.391Z,100.00
2022-11-25T06:43:58.981Z,100.00
2022-11-25T06:46:25.733Z,100.00
2022-11-25T06:48:55.824Z,100.00
2022-11-25T06:51:24.610Z,100.00
2022-11-25T06:53:51.204Z,100.00
2022-11-25T06:56:23.644Z,100.00
2022-11-25T06:58:51.609Z,100.00
2022-11-25T07:01:27.300Z,100.00
2022-11-25T07:04:03.343Z,100.00
2022-11-25T07:06:31.540Z,100.00
2022-11-25T07:08:58.512Z,100.00
2022-11-25T07:11:32.311Z,100.00
2022-11-25T07:14:05.635Z,100.00
2022-11-25T07:16:33.536Z,100.00
2022-11-25T07:19:02.192Z,100.00
2022-11-25T07:21:32.313Z,100.00
2022-11-25T07:24:01.523Z,100.00
2022-11-25T07:26:31.305Z,100.00
2022-11-25T07:29:00.787Z,100.00
2022-11-25T07:31:33.499Z,100.00
2022-11-25T07:34:20.595Z,100.00
2022-11-25T07:36:49.374Z,100.00
2022-11-25T07:39:21.741Z,100.00
2022-11-25T07:41:53.119Z,100.00
2022-11-25T07:44:20.529Z,100.00
2022-11-25T07:46:49.231Z,100.00
2022-11-25T07:49:22.210Z,100.00
2022-11-25T07:51:54.260Z,100.00
2022-11-25T07:54:21.882Z,100.00
2022-11-25T07:56:49.827Z,100.00
2022-11-25T07:59:20.018Z,100.00
2022-11-25T08:01:48.567Z,100.00
2022-11-25T08:04:20.067Z,100.00
2022-11-25T08:06:49.821Z,100.00
2022-11-25T08:09:19.662Z,100.00
2022-11-25T08:11:47.119Z,100.00
2022-11-25T08:14:13.866Z,100.00
2022-11-25T08:16:40.522Z,100.00
2022-11-25T08:19:11.674Z,100.00
2022-11-25T08:21:38.511Z,100.00
2022-11-25T08:24:05.618Z,100.00
2022-11-25T08:26:38.602Z,100.00
2022-11-25T08:29:07.053Z,100.00
2022-11-25T08:31:38.533Z,100.00
2022-11-25T08:34:08.782Z,100.00
2022-11-25T08:36:35.869Z,100.00
2022-11-25T08:39:22.483Z,100.00
2022-11-25T08:41:52.913Z,100.00
2022-11-25T08:44:19.504Z,100.00
2022-11-25T08:46:46.388Z,100.00
2022-11-25T08:49:14.259Z,100.00
2022-11-25T08:51:40.951Z,100.00
2022-11-25T08:54:08.720Z,100.00
2022-11-25T08:56:35.690Z,100.00
2022-11-25T08:59:02.774Z,100.00
2022-11-25T09:01:29.822Z,100.00
2022-11-25T09:03:57.217Z,100.00
2022-11-25T09:06:26.284Z,100.00
2022-11-25T09:08:56.563Z,100.00
2022-11-25T09:11:24.233Z,100.00
2022-11-25T09:13:50.991Z,100.00
2022-11-25T09:16:17.658Z,100.00
2022-11-25T09:18:45.735Z,100.00
2022-11-25T09:21:16.412Z,100.00
2022-11-25T09:23:43.487Z,100.00
2022-11-25T09:26:23.438Z,100.00
2022-11-25T09:28:50.182Z,100.00
2022-11-25T09:31:17.019Z,100.00
2022-11-25T09:33:44.611Z,100.00
2022-11-25T09:36:13.267Z,100.00
2022-11-25T09:38:43.256Z,100.00
2022-11-25T09:41:59.358Z,100.00
2022-11-25T09:45:09.591Z,99.74
2022-11-25T09:47:43.564Z,98.77
2022-11-25T09:50:51.090Z,99.15
2022-11-25T09:53:43.366Z,98.56
2022-11-25T09:56:28.651Z,98.00
2022-11-25T09:59:20.543Z,98.26
2022-11-25T10:02:03.035Z,98.78
2022-11-25T10:04:38.169Z,98.34
2022-11-25T10:07:11.309Z,98.78
2022-11-25T10:09:38.218Z,98.11
2022-11-25T10:12:34.621Z,97.92
2022-11-25T10:15:13.284Z,97.40
2022-11-25T10:17:52.029Z,97.74
2022-11-25T10:20:26.545Z,97.40
2022-11-25T10:23:00.917Z,98.67
2022-11-25T10:25:46.031Z,96.22
2022-11-25T10:28:23.132Z,96.73
2022-11-25T10:30:52.725Z,96.77
2022-11-25T10:33:30.752Z,95.00
2022-11-25T10:36:06.797Z,96.01
2022-11-25T10:38:42.623Z,95.40
2022-11-25T10:41:15.796Z,93.66
2022-11-25T10:43:43.709Z,93.73
2022-11-25T10:46:22.533Z,94.03
2022-11-25T10:49:01.835Z,93.27
2022-11-25T10:51:47.534Z,92.80
2022-11-25T10:54:27.581Z,91.93
2022-11-25T10:57:18.875Z,92.25
2022-11-25T10:59:58.983Z,91.89
2022-11-25T11:02:34.716Z,91.43
2022-11-25T11:05:10.409Z,93.15
2022-11-25T11:07:40.952Z,92.07
2022-11-25T11:10:25.949Z,91.42
2022-11-25T11:13:02.597Z,92.84
2022-11-25T11:15:44.599Z,93.28
2022-11-25T11:18:25.056Z,91.55
2022-11-25T11:21:00.373Z,91.47
2022-11-25T11:23:28.941Z,91.37
2022-11-25T11:26:09.834Z,91.02
2022-11-25T11:28:37.268Z,90.83
2022-11-25T11:31:08.535Z,91.20
2022-11-25T11:33:48.783Z,89.96
2022-11-25T11:36:38.542Z,91.29
2022-11-25T11:39:23.918Z,91.44
2022-11-25T11:42:01.228Z,90.37
2022-11-25T11:44:40.246Z,90.32
2022-11-25T11:47:06.844Z,90.28
2022-11-25T11:50:03.127Z,91.35
2022-11-25T11:53:07.306Z,90.72
2022-11-25T11:56:11.927Z,90.39
2022-11-25T11:58:55.378Z,92.24
2022-11-25T12:01:30.736Z,92.16
2022-11-25T12:04:22.544Z,92.56
2022-11-25T12:07:27.203Z,93.12
2022-11-25T12:10:14.904Z,93.76
2022-11-25T12:13:00.408Z,93.60
2022-11-25T12:15:54.444Z,94.87
2022-11-25T12:18:48.197Z,95.13
2022-11-25T12:21:52.156Z,96.74
2022-11-25T12:24:51.097Z,97.09
2022-11-25T12:27:23.896Z,98.02
2022-11-25T12:30:13.708Z,99.05
2022-11-25T12:33:05.155Z,100.00
2022-11-25T12:35:57.367Z,100.00
2022-11-25T12:38:44.290Z,100.00
2022-11-25T12:41:23.012Z,100.00
2022-11-25T12:44:00.680Z,100.00
2022-11-25T12:46:33.177Z,100.00
2022-11-25T12:49:00.648Z,100.00
2022-11-25T12:51:54.362Z,100.00
2022-11-25T12:54:30.205Z,100.00
2022-11-25T12:57:30.736Z,100.00
2022-11-25T13:03:17.095Z,100.00
2022-11-25T13:05:49.567Z,100.00
2022-11-25T13:08:29.189Z,100.00
2022-11-25T13:11:15.885Z,100.00
2022-11-25T13:13:50.140Z,100.00
2022-11-25T13:16:19.715Z,100.00
2022-11-25T13:18:47.236Z,100.00
2022-11-25T13:21:15.623Z,100.00
2022-11-25T13:23:49.926Z,100.00
2022-11-25T13:26:28.754Z,100.00
2022-11-25T13:29:00.245Z,100.00
2022-11-25T13:31:35.208Z,100.00
2022-11-25T13:34:25.378Z,100.00
2022-11-25T13:36:53.352Z,100.00
2022-11-25T13:39:34.389Z,100.00
2022-11-25T13:42:12.885Z,100.00
2022-11-25T13:45:25.173Z,100.00
2022-11-25T13:47:53.161Z,100.00
2022-11-25T13:50:36.786Z,100.00
2022-11-25T13:53:21.314Z,100.00
2022-11-25T13:55:50.305Z,100.00
2022-11-25T13:58:19.375Z,100.00
2022-11-25T14:00:50.855Z,100.00
2022-11-25T14:03:20.509Z,100.00
2022-11-25T14:06:00.043Z,100.00
2022-11-25T14:08:35.705Z,100.00
2022-11-25T14:11:11.365Z,100.00
2022-11-25T14:13:57.698Z,100.00
2022-11-25T14:16:45.735Z,100.00
2022-11-25T14:22:40.741Z,100.00
2022-11-25T14:25:26.936Z,100.00
2022-11-25T14:28:18.903Z,100.00
2022-11-25T14:30:53.557Z,100.00
2022-11-25T14:34:01.593Z,100.00
2022-11-25T14:36:33.769Z,100.00
2022-11-25T14:39:06.247Z,100.00
2022-11-25T14:41:41.666Z,100.00
2022-11-25T14:44:17.192Z,100.00
2022-11-25T14:46:54.663Z,100.00
2022-11-25T14:49:46.684Z,100.00
2022-11-25T14:52:11.148Z,100.00
2022-11-25T14:54:43.462Z,100.00
2022-11-25T14:57:10.626Z,100.00
2022-11-25T14:59:43.683Z,100.00
2022-11-25T15:02:29.999Z,100.00
2022-11-25T15:05:08.396Z,100.00
2022-11-25T15:07:35.339Z,100.00
2022-11-25T15:10:02.060Z,100.00
2022-11-25T15:12:33.009Z,100.00
2022-11-25T15:15:00.135Z,100.00
2022-11-25T15:17:32.018Z,100.00
2022-11-25T15:20:03.844Z,100.00
2022-11-25T15:22:31.571Z,100.00
2022-11-25T15:25:08.329Z,100.00
2022-11-25T15:27:34.827Z,100.00
2022-11-25T15:30:01.316Z,100.00
2022-11-25T15:32:30.843Z,100.00
2022-11-25T15:35:00.407Z,100.00
2022-11-25T15:37:27.744Z,100.00
2022-11-25T15:40:31.952Z,100.00
2022-11-25T15:43:04.494Z,100.00
2022-11-25T15:46:00.823Z,100.00
2022-11-25T15:48:49.520Z,100.00
2022-11-25T15:51:49.020Z,100.00
2022-11-25T15:54:21.759Z,100.00
2022-11-25T15:56:51.219Z,100.00
2022-11-25T15:59:47.431Z,100.00
2022-11-25T16:02:34.366Z,100.00
2022-11-25T16:05:13.144Z,100.00
2022-11-25T16:07:51.932Z,100.00
2022-11-25T16:10:32.248Z,100.00
2022-11-25T16:13:23.895Z,100.00
2022-11-25T16:16:07.735Z,100.00
2022-11-25T16:18:41.206Z,100.00
2022-11-25T16:21:12.094Z,100.00
2022-11-25T16:23:47.434Z,100.00
2022-11-25T16:26:36.139Z,100.00
2022-11-25T16:29:15.552Z,100.00
2022-11-25T16:31:42.118Z,100.00
2022-11-25T16:34:17.301Z,100.00
2022-11-25T16:36:44.141Z,100.00
2022-11-25T16:39:10.854Z,100.00
2022-11-25T16:41:38.203Z,100.00
2022-11-25T16:44:08.699Z,100.00
2022-11-25T16:46:35.659Z,100.00
2022-11-25T16:49:12.860Z,100.00
2022-11-25T16:51:39.349Z,100.00
2022-11-25T16:54:05.866Z,100.00
2022-11-25T16:56:36.576Z,100.00
2022-11-25T16:59:03.562Z,100.00
2022-11-25T17:01:31.385Z,100.00
2022-11-25T17:03:57.903Z,100.00
2022-11-25T17:06:26.850Z,100.00
2022-11-25T17:08:53.393Z,100.00
2022-11-25T17:11:31.040Z,100.00
2022-11-25T17:14:02.581Z,100.00
2022-11-25T17:16:30.273Z,100.00
2022-11-25T17:18:59.620Z,100.00
2022-11-25T17:21:28.805Z,100.00
2022-11-25T17:24:00.625Z,100.00
2022-11-25T17:26:38.333Z,100.00
2022-11-25T17:29:12.324Z,100.00
2022-11-25T17:31:39.197Z,100.00
2022-11-25T17:34:06.109Z,100.00
2022-11-25T17:36:32.797Z,100.00
2022-11-25T17:38:59.446Z,100.00
2022-11-25T17:41:29.339Z,100.00
2022-11-25T17:43:56.081Z,100.00
2022-11-25T17:46:24.839Z,100.00
2022-11-25T17:48:51.433Z,100.00
2022-11-25T17:51:17.951Z,100.00
2022-11-25T17:53:44.926Z,100.00
2022-11-25T17:56:17.989Z,100.00
2022-11-25T17:58:44.913Z,100.00
2022-11-25T18:01:11.522Z,100.00
2022-11-25T18:03:38.296Z,100.00
2022-11-25T18:06:06.574Z,100.00
2022-11-25T18:08:33.522Z,100.00
2022-11-25T18:11:02.912Z,100.00
2022-11-25T18:13:35.802Z,100.00
2022-11-25T18:16:02.769Z,100.00
2022-11-25T18:18:29.330Z,100.00
2022-11-25T18:20:56.247Z,100.00
2022-11-25T18:23:23.016Z,100.00
2022-11-25T18:25:50.174Z,100.00
2022-11-25T18:28:20.797Z,100.00
2022-11-25T18:30:49.114Z,100.00
2022-11-25T18:33:17.426Z,100.00
2022-11-25T18:35:45.274Z,100.00
2022-11-25T18:38:12.512Z,100.00
2022-11-25T18:40:42.534Z,100.00
2022-11-25T18:43:17.090Z,100.00
2022-11-25T18:45:44.978Z,100.00
2022-11-25T18:48:15.821Z,100.00
2022-11-25T18:50:43.852Z,100.00
2022-11-25T18:53:10.402Z,100.00
2022-11-25T18:55:37.200Z,100.00
2022-11-25T18:58:04.411Z,100.00
2022-11-25T19:00:32.988Z,100.00
2022-11-25T19:03:00.366Z,100.00
2022-11-25T19:05:32.871Z,100.00
2022-11-25T19:08:00.689Z,100.00
2022-11-25T19:10:30.859Z,100.00
2022-11-25T19:13:03.047Z,100.00
2022-11-25T19:15:29.644Z,100.00
2022-11-25T19:18:02.110Z,100.00
2022-11-25T19:20:30.436Z,100.00
2022-11-25T19:23:00.822Z,100.00
2022-11-25T19:25:28.537Z,100.00
2022-11-25T19:27:59.052Z,100.00
2022-11-25T19:30:29.734Z,100.00
2022-11-25T19:32:59.697Z,100.00
2022-11-25T19:35:31.705Z,100.00
2022-11-25T19:37:58.273Z,100.00
2022-11-25T19:40:25.336Z,100.00
2022-11-25T19:42:52.015Z,100.00
2022-11-25T19:45:20.670Z,100.00
2022-11-25T19:47:50.858Z,100.00
2022-11-25T19:50:26.134Z,100.00
2022-11-25T19:52:53.585Z,100.00
2022-11-25T19:55:26.344Z,100.00
2022-11-25T19:57:53.377Z,100.00
2022-11-25T20:00:22.321Z,100.00
2022-11-25T20:02:52.460Z,100.00
2022-11-25T20:05:22.987Z,100.00
2022-11-25T20:07:49.646Z,100.00
2022-11-25T20:10:20.721Z,100.00
2022-11-25T20:12:48.017Z,100.00
2022-11-25T20:15:15.166Z,100.00
2022-11-25T20:17:48.028Z,100.00
2022-11-25T20:20:23.302Z,100.00
2022-11-25T20:23:07.230Z,100.00
2022-11-25T20:25:36.401Z,100.00
2022-11-25T20:28:02.976Z,100.00
2022-11-25T20:30:31.149Z,100.00
2022-11-25T20:32:57.697Z,100.00
2022-11-25T20:35:25.938Z,100.00
2022-11-25T20:37:57.800Z,100.00
2022-11-25T20:40:33.570Z,100.00
2022-11-25T20:43:00.376Z,100.00
2022-11-25T20:45:27.051Z,100.00
2022-11-25T20:47:53.707Z,100.00
2022-11-25T20:50:21.913Z,100.00
2022-11-25T20:52:50.421Z,100.00
2022-11-25T20:55:20.192Z,100.00
2022-11-25T20:57:47.802Z,100.00
2022-11-25T21:00:18.563Z,100.00
2022-11-25T21:02:45.349Z,100.00
2022-11-25T21:05:12.449Z,100.00
2022-11-25T21:07:39.493Z,100.00
2022-11-25T21:10:18.005Z,100.00
2022-11-25T21:12:44.657Z,100.00
2022-11-25T21:15:20.979Z,100.00
2022-11-25T21:17:47.665Z,100.00
2022-11-25T21:20:16.104Z,100.00
2022-11-25T21:22:46.487Z,100.00
2022-11-25T21:25:18.798Z,100.00
2022-11-25T21:27:47.548Z,100.00
2022-11-25T21:30:26.852Z,100.00
2022-11-25T21:32:59.405Z,100.00
2022-11-25T21:35:32.130Z,100.00
2022-11-25T21:38:03.301Z,100.00
2022-11-25T21:40:41.863Z,100.00
2022-11-25T21:43:21.436Z,100.00
2022-11-25T21:45:50.193Z,100.00
2022-11-25T21:48:22.626Z,100.00
2022-11-25T21:50:49.549Z,100.00
2022-11-25T21:53:16.408Z,100.00
2022-11-25T21:55:44.202Z,100.00
2022-11-25T21:58:18.540Z,100.00
2022-11-25T22:00:49.657Z,100.00
2022-11-25T22:03:18.838Z,100.00
2022-11-25T22:05:46.366Z,100.00
2022-11-25T22:08:13.101Z,100.00
2022-11-25T22:10:42.005Z,100.00
2022-11-25T22:13:17.239Z,100.00
2022-11-25T22:15:44.629Z,100.00
2022-11-25T22:18:21.891Z,100.00
2022-11-25T22:20:53.222Z,100.00
2022-11-25T22:23:21.163Z,100.00
2022-11-25T22:25:49.763Z,100.00
2022-11-25T22:28:19.328Z,100.00
2022-11-25T22:30:53.936Z,100.00
2022-11-25T22:33:26.266Z,100.00
2022-11-25T22:35:52.887Z,100.00
2022-11-25T22:38:19.534Z,100.00
2022-11-25T22:40:56.663Z,100.00
2022-11-25T22:43:29.786Z,100.00
2022-11-25T22:45:57.204Z,100.00
2022-11-25T22:48:36.106Z,100.00
2022-11-25T22:51:03.345Z,100.00
2022-11-25T22:53:30.292Z,100.00
2022-11-25T22:55:58.275Z,100.00
2022-11-25T22:58:27.055Z,100.00
2022-11-25T23:00:54.793Z,100.00
2022-11-25T23:03:22.787Z,100.00
2022-11-25T23:05:51.501Z,100.00
2022-11-25T23:08:29.426Z,100.00
2022-11-25T23:10:57.173Z,100.00
2022-11-25T23:13:24.490Z,100.00
2022-11-25T23:15:53.784Z,100.00
2022-11-25T23:18:26.765Z,100.00
2022-11-25T23:20:53.505Z,100.00
2022-11-25T23:23:23.372Z,100.00
2022-11-25T23:25:50.607Z,100.00
2022-11-25T23:28:17.422Z,100.00
2022-11-25T23:30:58.140Z,100.00
2022-11-25T23:33:33.577Z,100.00
2022-11-25T23:36:04.789Z,100.00
2022-11-25T23:38:44.426Z,100.00
2022-11-25T23:41:15.511Z,100.00
2022-11-25T23:43:42.224Z,100.00
2022-11-25T23:46:10.362Z,100.00
2022-11-25T23:48:36.979Z,100.00
2022-11-25T23:51:03.651Z,100.00
2022-11-25T23:53:33.235Z,100.00
2022-11-25T23:56:00.009Z,100.00
2022-11-25T23:58:26.631Z,100.00
